createdAt,value
2023-05-20T00:00:49.076Z,3.20
2023-05-20T00:03:22.793Z,2.77
2023-05-20T00:05:49.916Z,2.60
2023-05-20T00:08:19.352Z,3.20
2023-05-20T00:10:46.283Z,3.40
2023-05-20T00:13:13.230Z,3.23
2023-05-20T00:15:40.286Z,3.70
2023-05-20T00:18:07.719Z,3.53
2023-05-20T00:20:34.679Z,3.37
2023-05-20T00:23:01.910Z,3.37
2023-05-20T00:25:30.825Z,3.70
2023-05-20T00:27:57.770Z,3.30
2023-05-20T00:30:24.839Z,3.40
2023-05-20T00:32:51.924Z,4.70
2023-05-20T00:35:18.903Z,3.80
2023-05-20T00:37:45.852Z,3.87
2023-05-20T00:40:15.404Z,3.80
2023-05-20T00:42:43.815Z,3.83
2023-05-20T00:45:11.159Z,4.27
2023-05-20T00:47:39.153Z,3.50
2023-05-20T00:50:07.258Z,3.80
2023-05-20T00:52:34.505Z,3.20
2023-05-20T00:55:01.557Z,3.17
2023-05-20T00:57:28.887Z,3.93
2023-05-20T00:59:56.258Z,3.77
2023-05-20T01:02:23.519Z,3.80
2023-05-20T01:04:50.687Z,4.27
2023-05-20T01:07:18.620Z,3.53
2023-05-20T01:09:46.017Z,3.47
2023-05-20T01:12:21.302Z,3.23
2023-05-20T01:15:13.224Z,3.20
2023-05-20T01:17:45.024Z,3.00
2023-05-20T01:20:14.535Z,3.13
2023-05-20T01:22:48.659Z,2.83
2023-05-20T01:25:15.614Z,3.20
2023-05-20T01:27:42.636Z,3.97
2023-05-20T01:30:09.844Z,3.20
2023-05-20T01:32:48.581Z,3.53
2023-05-20T01:35:17.463Z,3.10
2023-05-20T01:37:45.198Z,2.93
2023-05-20T01:40:15.774Z,3.20
2023-05-20T01:42:44.385Z,2.77
2023-05-20T01:45:11.925Z,3.80
2023-05-20T01:47:39.005Z,2.77
2023-05-20T01:50:07.140Z,3.27
2023-05-20T01:52:35.286Z,3.53
2023-05-20T01:55:02.830Z,3.90
2023-05-20T01:57:30.134Z,3.53
2023-05-20T01:59:57.098Z,3.40
2023-05-20T02:02:24.177Z,3.50
2023-05-20T02:04:53.344Z,4.13
2023-05-20T02:07:20.288Z,3.90
2023-05-20T02:09:48.103Z,2.93
2023-05-20T02:12:17.746Z,4.60
2023-05-20T02:14:46.738Z,5.03
2023-05-20T02:17:16.952Z,5.17
2023-05-20T02:19:45.369Z,4.90
2023-05-20T02:22:12.282Z,4.20
2023-05-20T02:24:39.313Z,4.43
2023-05-20T02:27:06.923Z,3.60
2023-05-20T02:29:34.302Z,4.23
2023-05-20T02:32:01.244Z,3.57
2023-05-20T02:34:30.436Z,3.90
2023-05-20T02:36:57.629Z,4.63
2023-05-20T02:39:25.010Z,5.20
2023-05-20T02:41:51.948Z,3.97
2023-05-20T02:44:18.887Z,4.80
2023-05-20T02:46:45.843Z,4.30
2023-05-20T02:49:12.792Z,4.13
2023-05-20T02:51:40.902Z,4.90
2023-05-20T02:54:07.868Z,5.10
2023-05-20T02:56:34.840Z,4.87
2023-05-20T02:59:04.738Z,3.87
2023-05-20T03:01:33.755Z,3.73
2023-05-20T03:04:01.202Z,4.77
2023-05-20T03:06:30.154Z,4.20
2023-05-20T03:08:57.087Z,4.57
2023-05-20T03:11:24.832Z,4.90
2023-05-20T03:13:51.792Z,4.10
2023-05-20T03:16:18.964Z,4.43
2023-05-20T03:18:46.362Z,4.70
2023-05-20T03:21:14.148Z,4.23
2023-05-20T03:23:41.328Z,4.30
2023-05-20T03:26:08.686Z,4.40
2023-05-20T03:28:36.582Z,4.50
2023-05-20T03:31:04.478Z,4.60
2023-05-20T03:33:34.606Z,3.43
2023-05-20T03:36:01.728Z,4.13
2023-05-20T03:38:28.713Z,4.10
2023-05-20T03:40:55.638Z,4.80
2023-05-20T03:43:22.617Z,5.17
2023-05-20T03:45:49.543Z,6.60
2023-05-20T03:48:16.545Z,8.50
2023-05-20T03:50:43.597Z,7.37
2023-05-20T03:53:11.248Z,8.57
2023-05-20T03:55:42.408Z,7.00
2023-05-20T03:58:10.376Z,5.97
2023-05-20T04:00:37.341Z,7.00
2023-05-20T04:03:04.435Z,6.17
2023-05-20T04:05:32.317Z,5.27
2023-05-20T04:08:01.441Z,5.50
2023-05-20T04:10:28.389Z,5.30
2023-05-20T04:12:55.482Z,4.63
2023-05-20T04:15:25.117Z,5.20
2023-05-20T04:17:55.922Z,8.23
2023-05-20T04:20:24.336Z,7.70
2023-05-20T04:22:54.210Z,7.03
2023-05-20T04:25:22.204Z,6.70
2023-05-20T04:27:49.758Z,6.00
2023-05-20T04:30:18.516Z,6.50
2023-05-20T04:32:45.509Z,6.70
2023-05-20T04:35:13.810Z,6.00
2023-05-20T04:37:47.830Z,5.17
2023-05-20T04:40:15.115Z,5.70
2023-05-20T04:42:43.624Z,5.30
2023-05-20T04:45:12.434Z,4.10
2023-05-20T04:47:40.406Z,4.40
2023-05-20T04:50:11.786Z,4.70
2023-05-20T04:52:43.013Z,4.67
2023-05-20T04:55:10.709Z,4.67
2023-05-20T04:57:42.804Z,4.67
2023-05-20T05:00:12.311Z,6.23
2023-05-20T05:02:40.543Z,4.30
2023-05-20T05:05:08.233Z,4.00
2023-05-20T05:07:35.811Z,5.00
2023-05-20T05:10:03.058Z,6.20
2023-05-20T05:12:31.618Z,5.17
2023-05-20T05:14:59.388Z,5.67
2023-05-20T05:17:28.739Z,5.67
2023-05-20T05:19:56.991Z,5.30
2023-05-20T05:22:24.094Z,6.73
2023-05-20T05:24:52.307Z,5.17
2023-05-20T05:27:19.273Z,5.83
2023-05-20T05:29:46.243Z,5.70
2023-05-20T05:32:13.288Z,5.87
2023-05-20T05:34:40.908Z,5.00
2023-05-20T05:37:07.850Z,5.07
2023-05-20T05:39:37.576Z,5.57
2023-05-20T05:42:05.481Z,4.33
2023-05-20T05:44:33.511Z,5.67
2023-05-20T05:47:01.032Z,4.83
2023-05-20T05:49:28.217Z,5.57
2023-05-20T05:51:55.258Z,4.40
2023-05-20T05:54:22.260Z,4.73
2023-05-20T05:56:51.918Z,4.57
2023-05-20T05:59:19.870Z,4.17
2023-05-20T06:01:46.971Z,4.50
2023-05-20T06:04:15.427Z,4.53
2023-05-20T06:06:42.618Z,3.77
2023-05-20T06:09:09.622Z,3.53
2023-05-20T06:11:37.121Z,3.93
2023-05-20T06:14:04.133Z,3.23
2023-05-20T06:16:31.489Z,4.13
2023-05-20T06:19:02.642Z,3.90
2023-05-20T06:21:32.548Z,3.93
2023-05-20T06:23:59.495Z,3.70
2023-05-20T06:26:26.783Z,3.57
2023-05-20T06:28:53.874Z,3.60
2023-05-20T06:31:21.066Z,3.63
2023-05-20T06:33:48.549Z,4.80
2023-05-20T06:36:17.378Z,4.03
2023-05-20T06:38:44.400Z,4.20
2023-05-20T06:41:13.633Z,3.90
2023-05-20T06:43:40.754Z,4.53
2023-05-20T06:46:29.362Z,4.33
2023-05-20T06:49:02.163Z,4.73
2023-05-20T06:51:29.805Z,5.10
2023-05-20T06:53:56.976Z,5.27
2023-05-20T06:56:24.237Z,4.30
2023-05-20T06:58:51.197Z,4.13
2023-05-20T07:01:18.507Z,3.70
2023-05-20T07:03:46.492Z,4.90
2023-05-20T07:06:13.746Z,5.30
2023-05-20T07:08:41.129Z,4.30
2023-05-20T07:11:08.935Z,4.30
2023-05-20T07:13:35.989Z,4.10
2023-05-20T07:16:02.934Z,4.60
2023-05-20T07:18:30.072Z,4.47
2023-05-20T07:20:57.747Z,3.47
2023-05-20T07:23:43.382Z,5.80
2023-05-20T07:26:10.563Z,4.80
2023-05-20T07:28:39.139Z,4.87
2023-05-20T07:31:06.341Z,4.43
2023-05-20T07:33:39.282Z,4.70
2023-05-20T07:36:07.963Z,4.90
2023-05-20T07:38:36.315Z,4.77
2023-05-20T07:41:07.034Z,4.33
2023-05-20T07:43:34.549Z,5.53
2023-05-20T07:46:03.625Z,4.50
2023-05-20T07:48:30.636Z,5.00
2023-05-20T07:50:59.189Z,4.17
2023-05-20T07:53:27.008Z,4.30
2023-05-20T07:55:54.499Z,4.13
2023-05-20T07:58:21.683Z,4.60
2023-05-20T08:00:49.998Z,4.67
2023-05-20T08:03:17.393Z,4.57
2023-05-20T08:05:54.875Z,4.60
2023-05-20T08:08:22.288Z,4.90
2023-05-20T08:10:57.030Z,5.23
2023-05-20T08:13:25.924Z,5.00
2023-05-20T08:15:54.794Z,4.70
2023-05-20T08:18:22.574Z,4.70
2023-05-20T08:20:50.254Z,4.53
2023-05-20T08:23:17.326Z,6.53
2023-05-20T08:25:46.805Z,5.60
2023-05-20T08:28:14.221Z,5.50
2023-05-20T08:30:41.740Z,5.90
2023-05-20T08:33:08.968Z,4.80
2023-05-20T08:35:37.781Z,5.10
2023-05-20T08:38:05.389Z,4.90
2023-05-20T08:40:35.063Z,5.50
2023-05-20T08:43:02.468Z,5.30
2023-05-20T08:45:33.602Z,5.70
2023-05-20T08:48:05.865Z,6.50
2023-05-20T08:50:33.052Z,5.13
2023-05-20T08:53:00.453Z,4.53
2023-05-20T08:55:43.882Z,5.00
2023-05-20T08:58:10.988Z,5.40
2023-05-20T09:00:38.429Z,5.27
2023-05-20T09:03:05.566Z,4.90
2023-05-20T09:05:32.928Z,5.93
2023-05-20T09:08:10.853Z,5.70
2023-05-20T09:10:40.027Z,5.97
2023-05-20T09:13:08.482Z,6.00
2023-05-20T09:15:37.112Z,6.00
2023-05-20T09:18:07.635Z,5.83
2023-05-20T09:20:41.202Z,5.20
2023-05-20T09:23:10.135Z,6.20
2023-05-20T09:25:37.903Z,6.20
2023-05-20T09:28:08.829Z,7.23
2023-05-20T09:30:36.102Z,6.67
2023-05-20T09:33:05.767Z,6.80
2023-05-20T09:35:39.125Z,6.70
2023-05-20T09:38:10.018Z,6.33
2023-05-20T09:40:41.166Z,7.00
2023-05-20T09:43:08.788Z,5.93
2023-05-20T09:45:36.132Z,6.10
2023-05-20T09:48:05.890Z,6.97
2023-05-20T09:50:33.266Z,6.10
2023-05-20T09:53:04.080Z,6.17
2023-05-20T09:55:31.328Z,6.07
2023-05-20T09:58:02.661Z,5.60
2023-05-20T10:00:30.133Z,5.70
2023-05-20T10:02:57.716Z,5.67
2023-05-20T10:05:39.895Z,6.10
2023-05-20T10:08:57.289Z,6.37
2023-05-20T10:11:56.565Z,5.97
2023-05-20T10:14:44.087Z,5.30
2023-05-20T10:17:46.780Z,4.37
2023-05-20T10:20:13.902Z,5.17
2023-05-20T10:22:41.032Z,4.83
2023-05-20T10:25:13.011Z,4.73
2023-05-20T10:27:49.082Z,5.17
2023-05-20T10:30:23.579Z,4.63
2023-05-20T10:32:57.451Z,5.20
2023-05-20T10:35:29.276Z,4.50
2023-05-20T10:38:13.134Z,5.00
2023-05-20T10:40:40.780Z,5.83
2023-05-20T10:43:13.262Z,5.40
2023-05-20T10:45:51.816Z,4.43
2023-05-20T10:48:29.216Z,4.77
2023-05-20T10:50:58.516Z,4.70
2023-05-20T10:53:34.049Z,5.50
2023-05-20T10:56:01.720Z,4.50
2023-05-20T10:58:37.562Z,4.70
2023-05-20T11:01:04.782Z,4.23
2023-05-20T11:03:33.328Z,5.10
2023-05-20T11:06:00.260Z,5.07
2023-05-20T11:08:33.287Z,4.17
2023-05-20T11:11:00.278Z,4.30
2023-05-20T11:13:27.476Z,4.80
2023-05-20T11:15:55.478Z,4.47
2023-05-20T11:18:22.469Z,5.37
2023-05-20T11:20:49.562Z,4.83
2023-05-20T11:23:16.690Z,4.53
2023-05-20T11:25:43.697Z,4.90
2023-05-20T11:28:14.381Z,4.70
2023-05-20T11:30:43.340Z,4.57
2023-05-20T11:33:14.090Z,4.57
2023-05-20T11:35:52.202Z,4.53
2023-05-20T11:38:20.322Z,3.97
2023-05-20T11:40:55.120Z,4.00
2023-05-20T11:43:24.224Z,4.73
2023-05-20T11:45:59.876Z,5.30
2023-05-20T11:48:27.303Z,4.40
2023-05-20T11:50:56.214Z,5.50
2023-05-20T11:53:24.655Z,4.87
2023-05-20T11:55:55.644Z,5.53
2023-05-20T11:58:29.895Z,5.13
2023-05-20T12:01:05.628Z,5.10
2023-05-20T12:03:44.132Z,5.63
2023-05-20T12:06:13.530Z,5.00
2023-05-20T12:08:40.574Z,5.63
2023-05-20T12:11:07.549Z,5.03
2023-05-20T12:13:35.460Z,5.10
2023-05-20T12:16:02.849Z,5.03
2023-05-20T12:18:29.818Z,5.43
2023-05-20T12:20:56.757Z,5.50
2023-05-20T12:23:23.714Z,5.80
2023-05-20T12:25:50.826Z,5.70
2023-05-20T12:28:17.803Z,5.10
2023-05-20T12:30:44.733Z,5.30
2023-05-20T12:33:11.660Z,6.50
2023-05-20T12:35:43.574Z,6.00
2023-05-20T12:38:11.142Z,7.10
2023-05-20T12:40:38.569Z,5.70
2023-05-20T12:43:06.240Z,5.53
2023-05-20T12:45:33.189Z,6.37
2023-05-20T12:48:00.394Z,6.40
2023-05-20T12:50:27.817Z,7.10
2023-05-20T12:52:54.934Z,6.23
2023-05-20T12:55:21.969Z,7.47
2023-05-20T12:57:48.947Z,6.70
2023-05-20T13:00:16.627Z,6.80
2023-05-20T13:02:44.126Z,6.83
2023-05-20T13:05:11.543Z,6.70
2023-05-20T13:07:38.818Z,7.20
2023-05-20T13:10:07.387Z,6.87
2023-05-20T13:12:35.137Z,6.73
2023-05-20T13:15:02.205Z,6.83
2023-05-20T13:17:29.388Z,7.00
2023-05-20T13:19:56.487Z,7.20
2023-05-20T13:22:23.611Z,7.43
2023-05-20T13:24:50.566Z,6.97
2023-05-20T13:27:17.493Z,7.17
2023-05-20T13:29:44.599Z,7.30
2023-05-20T13:32:11.573Z,7.37
2023-05-20T13:34:39.331Z,7.87
2023-05-20T13:37:06.924Z,6.53
2023-05-20T13:39:33.849Z,8.30
2023-05-20T13:42:00.909Z,8.50
2023-05-20T13:44:27.857Z,7.83
2023-05-20T13:46:54.847Z,7.03
2023-05-20T13:49:22.264Z,7.77
2023-05-20T13:51:49.185Z,6.97
2023-05-20T13:54:16.149Z,7.60
2023-05-20T13:56:43.182Z,6.30
2023-05-20T13:59:10.163Z,6.30
2023-05-20T14:01:40.468Z,6.13
2023-05-20T14:04:08.271Z,5.70
2023-05-20T14:06:35.294Z,6.57
2023-05-20T14:09:03.173Z,6.30
2023-05-20T14:11:30.124Z,7.17
2023-05-20T14:13:57.047Z,6.60
2023-05-20T14:16:24.130Z,6.27
2023-05-20T14:18:51.124Z,5.20
2023-05-20T14:21:19.167Z,4.83
2023-05-20T14:23:46.718Z,5.60
2023-05-20T14:26:13.696Z,5.30
2023-05-20T14:28:40.779Z,5.20
2023-05-20T14:31:09.676Z,5.77
2023-05-20T14:33:36.962Z,5.90
2023-05-20T14:36:04.251Z,5.73
2023-05-20T14:38:31.301Z,5.50
2023-05-20T14:40:58.232Z,5.17
2023-05-20T14:43:25.821Z,5.30
2023-05-20T14:45:52.946Z,5.83
2023-05-20T14:48:19.985Z,5.20
2023-05-20T14:50:48.934Z,5.30
2023-05-20T14:53:17.384Z,5.83
2023-05-20T14:55:44.339Z,5.47
2023-05-20T14:58:11.674Z,5.07
2023-05-20T15:00:39.576Z,6.33
2023-05-20T15:03:06.780Z,5.80
2023-05-20T15:05:33.962Z,6.13
2023-05-20T15:08:01.044Z,6.30
2023-05-20T15:10:28.069Z,6.37
2023-05-20T15:12:55.216Z,5.80
2023-05-20T15:15:22.305Z,5.13
2023-05-20T15:17:49.281Z,4.70
2023-05-20T15:20:16.370Z,5.20
2023-05-20T15:22:47.708Z,4.23
2023-05-20T15:25:15.314Z,4.80
2023-05-20T15:27:42.502Z,4.37
2023-05-20T15:30:10.548Z,4.20
2023-05-20T15:32:37.674Z,4.53
2023-05-20T15:35:05.355Z,4.70
2023-05-20T15:37:32.311Z,3.90
2023-05-20T15:39:59.273Z,4.17
2023-05-20T15:42:26.869Z,4.20
2023-05-20T15:44:53.790Z,3.87
2023-05-20T15:47:21.404Z,4.30
2023-05-20T15:49:48.489Z,3.60
2023-05-20T15:52:15.527Z,3.40
2023-05-20T15:54:42.587Z,3.77
2023-05-20T15:57:10.101Z,3.60
2023-05-20T15:59:37.074Z,3.60
2023-05-20T16:02:04.178Z,3.70
2023-05-20T16:04:32.514Z,3.77
2023-05-20T16:06:59.664Z,4.03
2023-05-20T16:09:26.621Z,3.90
2023-05-20T16:11:53.564Z,4.10
2023-05-20T16:14:20.516Z,2.90
2023-05-20T16:16:47.482Z,3.33
2023-05-20T16:19:14.620Z,3.20
2023-05-20T16:21:41.572Z,3.27
2023-05-20T16:24:08.509Z,3.23
2023-05-20T16:26:35.433Z,2.90
2023-05-20T16:29:02.416Z,3.53
2023-05-20T16:31:29.413Z,3.40
2023-05-20T16:33:56.511Z,3.33
2023-05-20T16:36:23.565Z,2.97
2023-05-20T16:38:50.567Z,3.10
2023-05-20T16:41:17.519Z,3.27
2023-05-20T16:43:44.599Z,3.37
2023-05-20T16:46:14.302Z,3.13
2023-05-20T16:48:42.580Z,3.20
2023-05-20T16:51:09.515Z,3.40
2023-05-20T16:53:36.486Z,3.10
2023-05-20T16:56:06.023Z,3.70
2023-05-20T16:58:32.971Z,2.73
2023-05-20T17:01:00.017Z,2.70
2023-05-20T17:03:26.974Z,3.40
2023-05-20T17:05:53.962Z,3.17
2023-05-20T17:08:20.964Z,3.10
2023-05-20T17:10:51.237Z,3.03
2023-05-20T17:13:19.405Z,3.03
2023-05-20T17:15:46.322Z,3.20
2023-05-20T17:18:13.337Z,3.30
2023-05-20T17:20:40.446Z,3.10
2023-05-20T17:23:07.352Z,2.70
2023-05-20T17:25:34.291Z,3.20
2023-05-20T17:28:01.299Z,3.33
2023-05-20T17:30:28.318Z,2.60
2023-05-20T17:32:57.375Z,3.00
2023-05-20T17:35:28.060Z,3.20
2023-05-20T17:37:55.207Z,3.43
2023-05-20T17:40:22.300Z,3.27
2023-05-20T17:42:49.242Z,3.17
2023-05-20T17:45:16.279Z,3.00
2023-05-20T17:47:43.232Z,3.10
2023-05-20T17:50:10.898Z,2.87
2023-05-20T17:52:37.853Z,3.73
2023-05-20T17:55:06.590Z,3.10
2023-05-20T17:57:33.786Z,2.83
2023-05-20T18:00:00.728Z,3.37
2023-05-20T18:02:27.720Z,2.77
2023-05-20T18:04:54.751Z,3.50
2023-05-20T18:07:21.691Z,2.60
2023-05-20T18:09:48.637Z,3.67
2023-05-20T18:12:15.572Z,3.30
2023-05-20T18:14:42.486Z,4.13
2023-05-20T18:17:09.609Z,3.13
2023-05-20T18:19:36.541Z,3.40
2023-05-20T18:22:03.494Z,2.70
2023-05-20T18:24:30.649Z,3.37
2023-05-20T18:26:57.633Z,3.10
2023-05-20T18:29:26.752Z,2.87
2023-05-20T18:31:53.771Z,3.33
2023-05-20T18:34:20.747Z,3.37
2023-05-20T18:36:47.728Z,3.40
2023-05-20T18:39:20.171Z,3.50
2023-05-20T18:41:50.001Z,4.30
2023-05-20T18:44:22.812Z,3.40
2023-05-20T18:46:49.774Z,3.63
2023-05-20T18:49:16.737Z,3.77
2023-05-20T18:51:43.691Z,3.23
2023-05-20T18:54:10.698Z,4.77
2023-05-20T18:56:37.849Z,3.30
2023-05-20T18:59:04.783Z,4.17
2023-05-20T19:01:33.865Z,3.27
2023-05-20T19:04:01.087Z,3.40
2023-05-20T19:06:28.206Z,3.20
2023-05-20T19:08:55.221Z,3.27
2023-05-20T19:11:22.169Z,3.70
2023-05-20T19:13:49.127Z,3.63
2023-05-20T19:16:16.435Z,4.57
2023-05-20T19:18:43.497Z,3.30
2023-05-20T19:21:10.698Z,3.83
2023-05-20T19:23:37.647Z,4.00
2023-05-20T19:26:04.766Z,3.70
2023-05-20T19:28:31.672Z,3.70
2023-05-20T19:30:58.602Z,3.60
2023-05-20T19:33:25.611Z,4.40
2023-05-20T19:35:52.597Z,4.77
2023-05-20T19:38:19.580Z,4.27
2023-05-20T19:40:47.679Z,4.03
2023-05-20T19:43:14.803Z,3.33
2023-05-20T19:45:41.788Z,4.27
2023-05-20T19:48:09.585Z,3.70
2023-05-20T19:50:37.331Z,4.20
2023-05-20T19:53:07.195Z,3.23
2023-05-20T19:55:36.249Z,4.23
2023-05-20T19:58:03.575Z,3.40
2023-05-20T20:00:30.923Z,4.03
2023-05-20T20:02:59.053Z,4.23
2023-05-20T20:05:26.566Z,4.63
2023-05-20T20:07:53.590Z,4.13
2023-05-20T20:10:20.605Z,4.00
2023-05-20T20:12:47.586Z,4.60
2023-05-20T20:15:14.780Z,3.80
2023-05-20T20:17:46.021Z,4.60
2023-05-20T20:20:16.743Z,3.73
2023-05-20T20:22:43.678Z,4.03
2023-05-20T20:25:13.808Z,4.10
2023-05-20T20:27:43.870Z,4.17
2023-05-20T20:30:15.100Z,4.73
2023-05-20T20:32:42.732Z,5.10
2023-05-20T20:35:10.812Z,5.00
2023-05-20T20:37:38.378Z,4.87
2023-05-20T20:40:13.391Z,4.77
2023-05-20T20:42:42.387Z,4.20
2023-05-20T20:45:12.272Z,4.83
2023-05-20T20:47:40.985Z,4.00
2023-05-20T20:50:08.928Z,4.00
2023-05-20T20:52:36.428Z,4.67
2023-05-20T20:55:04.505Z,3.70
2023-05-20T20:57:32.035Z,5.17
2023-05-20T20:59:58.973Z,4.73
2023-05-20T21:02:26.229Z,5.07
2023-05-20T21:04:53.179Z,4.47
2023-05-20T21:07:20.142Z,4.40
2023-05-20T21:09:47.133Z,3.97
2023-05-20T21:12:14.124Z,3.60
2023-05-20T21:14:42.899Z,4.33
2023-05-20T21:17:09.959Z,4.10
2023-05-20T21:19:36.919Z,4.03
2023-05-20T21:22:03.863Z,3.70
2023-05-20T21:24:30.883Z,4.20
2023-05-20T21:26:57.797Z,5.30
2023-05-20T21:29:25.239Z,5.40
2023-05-20T21:31:52.273Z,4.30
2023-05-20T21:34:19.186Z,3.80
2023-05-20T21:36:46.102Z,5.00
2023-05-20T21:39:13.014Z,4.50
2023-05-20T21:41:40.306Z,3.83
2023-05-20T21:44:07.327Z,4.30
2023-05-20T21:46:34.269Z,4.20
2023-05-20T21:49:01.211Z,4.53
2023-05-20T21:51:28.154Z,4.87
2023-05-20T21:53:55.069Z,3.80
2023-05-20T21:56:22.589Z,4.50
2023-05-20T21:58:49.526Z,4.70
2023-05-20T22:01:16.542Z,4.67
2023-05-20T22:03:46.702Z,4.10
2023-05-20T22:06:16.047Z,3.97
2023-05-20T22:08:43.763Z,4.20
2023-05-20T22:11:10.698Z,4.17
2023-05-20T22:13:41.432Z,3.87
2023-05-20T22:16:09.308Z,4.80
2023-05-20T22:18:36.266Z,3.97
2023-05-20T22:21:03.934Z,3.77
2023-05-20T22:23:31.043Z,3.80
2023-05-20T22:25:58.245Z,4.30
2023-05-20T22:28:26.169Z,4.17
2023-05-20T22:30:53.102Z,4.50
2023-05-20T22:33:20.057Z,4.60
2023-05-20T22:35:46.958Z,4.93
2023-05-20T22:38:13.895Z,4.00
2023-05-20T22:40:41.033Z,4.30
2023-05-20T22:43:07.967Z,3.87
2023-05-20T22:45:35.332Z,4.07
2023-05-20T22:48:03.679Z,4.30
2023-05-20T22:50:30.783Z,4.60
2023-05-20T22:52:57.682Z,3.30
2023-05-20T22:55:24.587Z,3.97
2023-05-20T22:57:51.637Z,4.23
2023-05-20T23:00:18.790Z,3.90
2023-05-20T23:02:49.553Z,4.20
2023-05-20T23:05:16.750Z,4.40
2023-05-20T23:07:44.786Z,4.20
2023-05-20T23:10:11.797Z,4.70
2023-05-20T23:12:38.737Z,4.93
2023-05-20T23:15:06.665Z,5.00
2023-05-20T23:17:33.625Z,4.17
2023-05-20T23:20:00.637Z,5.27
2023-05-20T23:22:27.582Z,4.40
2023-05-20T23:24:54.475Z,4.90
2023-05-20T23:27:21.397Z,4.80
2023-05-20T23:29:48.298Z,6.00
2023-05-20T23:32:15.353Z,4.97
2023-05-20T23:34:43.481Z,4.23
2023-05-20T23:37:10.425Z,5.17
2023-05-20T23:39:37.329Z,4.40
2023-05-20T23:42:05.146Z,5.03
2023-05-20T23:44:32.042Z,4.33
2023-05-20T23:46:58.963Z,4.00
2023-05-20T23:49:26.998Z,3.73
2023-05-20T23:51:54.134Z,4.97
2023-05-20T23:54:21.201Z,4.60
2023-05-20T23:56:48.206Z,5.13
2023-05-20T23:59:15.369Z,4.70
